createdAt,value
2023-05-22T03:55:40.401Z,17.07
2023-05-22T03:58:42.957Z,17.10
2023-05-22T04:01:46.658Z,17.30
2023-05-22T04:04:49.240Z,17.12
2023-05-22T04:07:52.720Z,17.14
2023-05-22T04:10:56.021Z,17.12
2023-05-22T04:14:03.416Z,17.19
2023-05-22T04:17:05.991Z,17.25
2023-05-22T04:20:08.833Z,17.34
2023-05-22T04:23:11.360Z,17.40
2023-05-22T04:26:13.808Z,17.49
2023-05-22T04:29:16.531Z,17.53
2023-05-22T04:32:21.768Z,17.60
2023-05-22T04:35:24.395Z,17.66
2023-05-22T04:38:26.533Z,17.69
2023-05-22T04:41:28.930Z,17.76
2023-05-22T04:44:34.479Z,17.80
2023-05-22T04:47:38.361Z,17.86
2023-05-22T04:50:41.239Z,17.89
2023-05-22T04:53:44.119Z,17.89
2023-05-22T04:56:46.389Z,17.86
2023-05-22T04:59:48.892Z,17.97
2023-05-22T05:02:51.116Z,18.14
2023-05-22T05:05:53.893Z,18.14
2023-05-22T05:08:56.500Z,18.16
2023-05-22T05:12:00.986Z,18.29
2023-05-22T05:15:03.542Z,18.38
2023-05-22T05:18:06.134Z,18.36
2023-05-22T05:21:08.428Z,18.40
2023-05-22T05:24:10.919Z,18.39
2023-05-22T05:27:13.918Z,18.51
2023-05-22T05:30:17.629Z,18.56
2023-05-22T05:33:22.916Z,18.65
2023-05-22T05:36:27.161Z,18.72
2023-05-22T05:39:29.759Z,18.82
2023-05-22T05:42:33.043Z,18.89
2023-05-22T05:45:36.030Z,18.86
2023-05-22T05:48:38.462Z,18.91
2023-05-22T05:51:41.039Z,18.90
2023-05-22T05:54:47.499Z,18.86
2023-05-22T05:57:50.629Z,18.75
2023-05-22T06:00:53.566Z,18.77
2023-05-22T06:03:56.278Z,19.01
2023-05-22T06:07:01.801Z,19.13
2023-05-22T06:10:08.377Z,19.17
2023-05-22T06:13:11.123Z,19.31
2023-05-22T06:16:13.890Z,19.40
2023-05-22T06:19:16.233Z,19.35
2023-05-22T06:22:19.284Z,19.35
2023-05-22T06:25:23.786Z,19.45
2023-05-22T06:28:26.393Z,19.46
2023-05-22T06:31:29.126Z,19.49
2023-05-22T06:34:32.295Z,19.58
2023-05-22T06:37:35.832Z,19.53
2023-05-22T06:40:38.936Z,19.54
2023-05-22T06:43:42.840Z,19.52
2023-05-22T06:46:46.621Z,19.59
2023-05-22T06:49:49.716Z,19.78
2023-05-22T06:52:52.174Z,20.08
2023-05-22T06:55:54.441Z,20.23
2023-05-22T06:58:58.680Z,20.38
2023-05-22T07:02:01.516Z,20.54
2023-05-22T07:05:05.723Z,20.48
2023-05-22T07:08:08.542Z,20.55
2023-05-22T07:11:11.026Z,20.64
2023-05-22T07:14:13.273Z,20.64
2023-05-22T07:17:15.982Z,20.71
2023-05-22T07:20:18.759Z,20.81
2023-05-22T07:23:23.320Z,21.03
2023-05-22T07:26:27.883Z,21.02
2023-05-22T07:29:31.386Z,20.92
2023-05-22T07:32:34.190Z,20.91
2023-05-22T07:35:37.685Z,20.72
2023-05-22T07:38:39.999Z,20.80
2023-05-22T07:41:50.116Z,20.98
2023-05-22T07:44:52.823Z,21.01
2023-05-22T07:47:56.790Z,20.86
2023-05-22T07:50:59.327Z,20.71
2023-05-22T07:54:02.431Z,20.63
2023-05-22T07:57:04.811Z,20.63
2023-05-22T08:00:16.028Z,20.66
2023-05-22T08:03:19.608Z,20.43
2023-05-22T08:06:23.706Z,20.26
2023-05-22T08:09:26.192Z,20.17
2023-05-22T08:12:28.384Z,20.11
2023-05-22T08:15:30.982Z,20.29
2023-05-22T08:18:33.142Z,20.32
2023-05-22T08:21:35.725Z,20.31
2023-05-22T08:24:37.924Z,20.62
2023-05-22T08:27:40.375Z,20.79
2023-05-22T08:30:42.515Z,20.96
2023-05-22T08:33:44.998Z,21.08
2023-05-22T08:36:47.316Z,21.25
2023-05-22T08:39:49.756Z,21.32
2023-05-22T08:42:54.328Z,21.46
2023-05-22T08:46:03.463Z,21.65
2023-05-22T08:49:06.129Z,21.74
2023-05-22T08:52:22.650Z,21.94
2023-05-22T08:55:25.042Z,21.87
2023-05-22T08:58:28.030Z,21.83
2023-05-22T09:01:32.384Z,21.74
2023-05-22T09:04:35.452Z,21.82
2023-05-22T09:07:39.294Z,21.87
2023-05-22T09:10:45.216Z,21.99
2023-05-22T09:13:49.061Z,21.96
2023-05-22T09:16:52.852Z,21.92
2023-05-22T09:19:59.324Z,21.93
2023-05-22T09:23:02.544Z,22.05
2023-05-22T09:26:05.476Z,22.19
2023-05-22T09:29:08.614Z,22.39
2023-05-22T09:40:54.403Z,22.78
2023-05-22T09:43:58.739Z,22.80
2023-05-22T09:47:04.624Z,22.97
2023-05-22T09:50:09.934Z,22.93
2023-05-22T09:53:13.252Z,22.71
2023-05-22T09:56:27.102Z,22.45
2023-05-22T09:59:40.182Z,22.37
2023-05-22T10:02:46.475Z,22.33
2023-05-22T10:05:52.365Z,22.45
2023-05-22T10:08:58.753Z,22.46
2023-05-22T10:12:07.986Z,22.52
2023-05-22T10:15:11.690Z,22.76
2023-05-22T10:18:15.853Z,23.14
2023-05-22T10:21:18.250Z,23.37
2023-05-22T10:24:21.132Z,23.43
2023-05-22T10:27:23.354Z,23.57
2023-05-22T10:30:36.527Z,23.48
2023-05-22T10:34:01.921Z,23.51
2023-05-22T10:37:26.352Z,23.76
2023-05-22T10:40:33.162Z,23.78
2023-05-22T10:43:38.636Z,23.70
2023-05-22T10:46:47.862Z,23.88
2023-05-22T10:50:09.834Z,23.83
2023-05-22T10:53:46.106Z,23.78
2023-05-22T10:56:49.102Z,23.91
2023-05-22T10:59:51.435Z,24.27
2023-05-22T11:03:17.301Z,24.40
2023-05-22T11:06:42.395Z,24.50
2023-05-22T11:09:48.481Z,25.25
2023-05-22T11:13:02.800Z,26.03
2023-05-22T11:16:06.353Z,27.15
2023-05-22T11:19:22.844Z,27.63
2023-05-22T11:22:38.035Z,28.09
2023-05-22T11:25:41.059Z,28.48
2023-05-22T11:28:44.133Z,28.82
2023-05-22T11:31:46.487Z,29.06
2023-05-22T11:34:52.328Z,29.45
2023-05-22T11:37:55.829Z,29.44
2023-05-22T11:41:01.851Z,29.86
2023-05-22T11:44:08.136Z,30.04
2023-05-22T11:47:10.663Z,30.79
2023-05-22T11:50:13.452Z,30.25
2023-05-22T11:53:16.442Z,29.54
2023-05-22T11:56:24.261Z,29.14
2023-05-22T11:59:27.036Z,30.06
2023-05-22T12:02:29.885Z,30.20
2023-05-22T12:05:32.723Z,30.25
2023-05-22T12:08:35.245Z,30.77
2023-05-22T12:11:37.700Z,30.68
2023-05-22T12:14:46.929Z,31.33
2023-05-22T12:17:49.406Z,31.88
2023-05-22T12:20:54.348Z,32.26
2023-05-22T12:23:56.718Z,32.57
2023-05-22T12:26:59.887Z,32.49
2023-05-22T12:30:10.269Z,32.62
2023-05-22T12:33:13.983Z,33.06
2023-05-22T12:36:16.465Z,32.42
2023-05-22T12:39:19.094Z,31.95
2023-05-22T12:42:21.634Z,31.50
2023-05-22T12:45:23.794Z,31.98
2023-05-22T12:48:26.358Z,31.77
2023-05-22T12:51:31.784Z,31.64
2023-05-22T12:54:34.233Z,32.08
2023-05-22T12:57:36.547Z,32.37
2023-05-22T13:00:41.225Z,32.10
2023-05-22T13:03:43.970Z,31.34
2023-05-22T13:06:46.696Z,30.25
2023-05-22T13:09:48.871Z,29.28
2023-05-22T13:12:51.643Z,29.01
2023-05-22T13:15:59.829Z,28.86
2023-05-22T13:19:02.413Z,28.49
2023-05-22T13:22:05.056Z,28.14
2023-05-22T13:25:08.126Z,27.82
2023-05-22T13:28:10.317Z,27.82
2023-05-22T13:31:12.731Z,27.53
2023-05-22T13:34:15.130Z,27.52
2023-05-22T13:37:21.127Z,27.49
2023-05-22T13:40:23.285Z,27.39
2023-05-22T13:43:25.963Z,27.52
2023-05-22T13:46:28.414Z,27.57
2023-05-22T13:49:30.849Z,27.44
2023-05-22T13:52:33.115Z,27.13
2023-05-22T13:55:36.131Z,27.29
2023-05-22T13:58:38.342Z,27.15
2023-05-22T14:01:41.714Z,27.07
2023-05-22T14:04:44.852Z,27.08
2023-05-22T14:07:48.044Z,27.14
2023-05-22T14:10:50.648Z,27.19
2023-05-22T14:13:54.134Z,27.35
2023-05-22T14:16:56.614Z,27.45
2023-05-22T14:19:59.796Z,27.43
2023-05-22T14:23:02.987Z,27.30
2023-05-22T14:26:05.273Z,27.40
2023-05-22T14:29:07.802Z,27.59
2023-05-22T14:32:10.191Z,27.57
2023-05-22T14:35:12.823Z,27.58
2023-05-22T14:38:14.943Z,27.54
2023-05-22T14:41:17.410Z,27.25
2023-05-22T14:44:19.705Z,27.23
2023-05-22T14:47:22.214Z,27.00
2023-05-22T14:50:24.405Z,26.65
2023-05-22T14:53:26.826Z,26.31
2023-05-22T14:56:28.959Z,26.32
2023-05-22T14:59:31.761Z,26.14
2023-05-22T15:02:33.923Z,25.92
2023-05-22T15:05:36.391Z,25.60
2023-05-22T15:08:38.619Z,25.61
2023-05-22T15:11:45.562Z,25.38
2023-05-22T15:14:47.691Z,25.29
2023-05-22T15:17:50.116Z,25.13
2023-05-22T15:20:52.332Z,25.11
2023-05-22T15:23:54.828Z,25.08
